Terminal Aerodrome Forecast
Issued by NWS

Home | Current Version | Previous Version | Text Only | Print | Product List | Glossary On
Versions: 1 2 3 4 5 6 7 8 9 10 11 12 13 14 15 16 17 18 19 20 21 22
387
FTUS43 KDVN 121128
TAFCID
TAF
KCID 121128Z 1212/1312 29012KT P6SM BKN011 OVC017
     FM121500 30014G20KT P6SM BKN025
     FM121800 30020G30KT P6SM SCT030
     FM130100 33015KT P6SM SKC=

USA.gov is the U.S. government's official web portal to all federal, state and local government web resources and services.